Time;durP1;ratioP1;P1;durP2;ratioP2;P2;SDS_P1;SDS_P2;PMS_P1;PMS_P2;Temp;Humidity;BMP_temperature;BMP_pressure;BME280_temperature;BME280_humidity;BME280_pressure;Samples;Min_cycle;Max_cycle;Signal;HPM_P1;HPM_P2
2023/10/15 00:04:42;;;;;;;4.35;2.30;;;;;;;;;;5091920;22;20090;-67
2023/10/15 00:07:08;;;;;;;3.60;2.20;;;;;;;;;;5055199;28;20041;-65
2023/10/15 00:09:33;;;;;;;4.72;2.00;;;;;;;;;;5073673;28;20024;-73
2023/10/15 00:11:59;;;;;;;4.05;1.98;;;;;;;;;;5056370;28;20052;-73
2023/10/15 00:14:25;;;;;;;3.70;2.08;;;;;;;;;;5073649;28;20119;-71
2023/10/15 00:16:50;;;;;;;3.63;1.98;;;;;;;;;;5073842;28;20109;-70
2023/10/15 00:19:16;;;;;;;4.00;2.03;;;;;;;;;;5055477;28;20033;-69
2023/10/15 00:21:41;;;;;;;5.07;2.40;;;;;;;;;;5073880;28;20032;-70
2023/10/15 00:24:10;;;;;;;3.33;1.80;;;;;;;;;;5055623;28;20025;-72
2023/10/15 00:26:35;;;;;;;2.35;1.77;;;;;;;;;;5055810;28;20069;-69
2023/10/15 00:29:01;;;;;;;4.60;2.10;;;;;;;;;;5055484;28;20578;-69
2023/10/15 00:31:28;;;;;;;4.35;2.22;;;;;;;;;;5073594;28;20037;-70
2023/10/15 00:33:55;;;;;;;5.82;2.15;;;;;;;;;;5073543;28;20028;-70
2023/10/15 00:36:23;;;;;;;2.97;2.05;;;;;;;;;;5073500;28;20127;-69
2023/10/15 00:38:48;;;;;;;3.65;1.77;;;;;;;;;;5073274;28;20352;-69
2023/10/15 00:41:14;;;;;;;2.58;1.77;;;;;;;;;;5055950;28;20047;-69
2023/10/15 00:43:52;;;;;;;3.53;1.90;;;;;;;;;;5073432;28;20038;-69
2023/10/15 00:46:18;;;;;;;2.47;1.80;;;;;;;;;;5073603;28;20033;-67
2023/10/15 00:48:48;;;;;;;3.42;1.92;;;;;;;;;;5055340;28;20078;-67
2023/10/15 00:51:13;;;;;;;3.28;1.80;;;;;;;;;;5073831;28;20105;-69
2023/10/15 00:53:58;;;;;;;3.72;1.90;;;;;;;;;;5073308;28;20079;-70
2023/10/15 00:56:26;;;;;;;4.15;1.77;;;;;;;;;;5073374;28;20036;-71
2023/10/15 01:01:23;;;;;;;3.33;1.90;;;;;;;;;;5073457;28;20037;-71
2023/10/15 01:03:49;;;;;;;3.03;1.80;;;;;;;;;;5055880;28;20391;-70
2023/10/15 01:06:16;;;;;;;3.75;2.10;;;;;;;;;;5073711;28;20045;-69
2023/10/15 01:08:42;;;;;;;4.53;2.03;;;;;;;;;;5085825;22;20445;-69
2023/10/15 01:11:12;;;;;;;3.60;1.67;;;;;;;;;;5073439;28;20367;-70
2023/10/15 01:13:49;;;;;;;3.88;2.22;;;;;;;;;;5055083;28;20032;-69
2023/10/15 01:16:17;;;;;;;4.78;2.10;;;;;;;;;;5038404;28;20040;-70
2023/10/15 01:18:45;;;;;;;4.20;2.42;;;;;;;;;;5074438;28;20364;-71
2023/10/15 01:21:10;;;;;;;4.65;2.00;;;;;;;;;;5058826;28;20040;-71
2023/10/15 01:26:13;;;;;;;3.17;1.45;;;;;;;;;;5077168;28;20044;-71
2023/10/15 01:28:39;;;;;;;3.78;1.77;;;;;;;;;;5059031;28;20041;-72
2023/10/15 01:31:07;;;;;;;5.43;2.03;;;;;;;;;;5076838;28;20040;-72
2023/10/15 01:33:52;;;;;;;2.53;1.42;;;;;;;;;;5076968;28;20041;-72
2023/10/15 01:36:27;;;;;;;2.88;1.95;;;;;;;;;;5041833;28;20064;-72
2023/10/15 01:39:09;;;;;;;4.22;1.90;;;;;;;;;;5058526;28;20214;-72
2023/10/15 01:41:39;;;;;;;3.85;1.27;;;;;;;;;;5076687;28;20032;-70
2023/10/15 01:44:06;;;;;;;3.25;1.33;;;;;;;;;;5076354;28;20036;-69
2023/10/15 01:47:07;;;;;;;3.63;1.67;;;;;;;;;;5076544;28;20466;-69
2023/10/15 01:49:35;;;;;;;2.70;1.67;;;;;;;;;;5073736;28;20036;-70
2023/10/15 01:52:12;;;;;;;3.13;1.35;;;;;;;;;;5076234;28;20166;-69
2023/10/15 01:54:38;;;;;;;3.53;1.70;;;;;;;;;;5076816;28;20028;-71
2023/10/15 01:57:06;;;;;;;2.78;1.75;;;;;;;;;;5075946;28;20458;-71
2023/10/15 01:59:41;;;;;;;3.28;1.60;;;;;;;;;;5058018;28;20033;-71
2023/10/15 02:02:08;;;;;;;4.63;1.58;;;;;;;;;;5058046;28;20087;-70
2023/10/15 02:04:42;;;;;;;4.63;1.60;;;;;;;;;;5041668;28;20027;-70
2023/10/15 02:07:07;;;;;;;3.38;1.85;;;;;;;;;;5041169;28;20123;-71
2023/10/15 02:09:38;;;;;;;4.03;1.73;;;;;;;;;;5075854;28;20124;-70
2023/10/15 02:12:07;;;;;;;5.60;1.63;;;;;;;;;;5058280;28;20048;-70
2023/10/15 02:14:54;;;;;;;4.97;2.00;;;;;;;;;;5097569;22;20432;-74
2023/10/15 02:17:24;;;;;;;2.72;1.70;;;;;;;;;;4996036;28;20058;-75
2023/10/15 02:19:49;;;;;;;3.90;1.60;;;;;;;;;;5016044;28;20108;-75
2023/10/15 02:22:15;;;;;;;5.15;2.15;;;;;;;;;;4998233;28;20473;-75
2023/10/15 02:24:56;;;;;;;3.60;2.08;;;;;;;;;;5026401;22;20473;-71
2023/10/15 02:27:25;;;;;;;4.38;2.42;;;;;;;;;;5064927;22;20265;-71
2023/10/15 02:29:51;;;;;;;3.22;1.90;;;;;;;;;;5035447;28;20061;-70
2023/10/15 02:34:47;;;;;;;3.73;1.80;;;;;;;;;;5034192;28;20033;-71
2023/10/15 02:37:18;;;;;;;2.97;1.80;;;;;;;;;;5055624;28;20029;-71
2023/10/15 02:39:52;;;;;;;2.83;1.80;;;;;;;;;;5038058;28;20120;-71
2023/10/15 02:42:31;;;;;;;2.75;1.60;;;;;;;;;;5055739;28;20391;-68
2023/10/15 02:44:58;;;;;;;4.50;1.63;;;;;;;;;;5038179;28;20033;-68
2023/10/15 02:47:48;;;;;;;5.35;1.95;;;;;;;;;;5037239;28;20033;-68
2023/10/15 02:50:18;;;;;;;3.72;1.73;;;;;;;;;;5036699;28;20049;-69
2023/10/15 02:52:45;;;;;;;2.90;1.77;;;;;;;;;;5037970;28;20033;-69
2023/10/15 02:55:11;;;;;;;4.20;1.52;;;;;;;;;;5020596;28;20044;-68
2023/10/15 02:57:43;;;;;;;5.32;1.70;;;;;;;;;;5053595;28;20040;-69
2023/10/15 03:00:13;;;;;;;4.40;1.58;;;;;;;;;;5055024;28;20033;-68
2023/10/15 03:02:43;;;;;;;3.17;1.65;;;;;;;;;;5038166;28;20039;-71
2023/10/15 03:05:13;;;;;;;3.28;1.58;;;;;;;;;;5054984;28;20039;-71
2023/10/15 03:07:42;;;;;;;2.72;1.60;;;;;;;;;;5055171;28;20119;-71
2023/10/15 03:10:09;;;;;;;3.92;1.38;;;;;;;;;;5054769;28;20426;-71
2023/10/15 03:12:34;;;;;;;2.65;1.52;;;;;;;;;;5054892;28;20033;-72
2023/10/15 03:15:00;;;;;;;5.03;1.50;;;;;;;;;;5055144;28;20364;-73
2023/10/15 03:17:29;;;;;;;3.47;1.63;;;;;;;;;;5036983;28;20033;-73
2023/10/15 03:19:55;;;;;;;4.93;1.58;;;;;;;;;;5036656;28;20037;-72
2023/10/15 03:22:23;;;;;;;2.45;1.85;;;;;;;;;;5036851;28;20481;-72
2023/10/15 03:24:50;;;;;;;3.65;1.88;;;;;;;;;;5036545;28;20029;-78
2023/10/15 03:27:17;;;;;;;3.42;1.80;;;;;;;;;;5035819;28;20472;-78
2023/10/15 03:29:43;;;;;;;5.22;1.60;;;;;;;;;;5054318;28;20047;-77
2023/10/15 03:32:12;;;;;;;3.40;1.95;;;;;;;;;;5037085;28;20041;-78
2023/10/15 03:34:48;;;;;;;5.43;1.92;;;;;;;;;;5036388;28;20036;-77
2023/10/15 03:37:16;;;;;;;5.10;1.63;;;;;;;;;;5054328;28;20052;-78
2023/10/15 03:39:55;;;;;;;6.63;1.53;;;;;;;;;;5036327;28;20043;-76
2023/10/15 03:42:26;;;;;;;4.75;1.60;;;;;;;;;;5054233;28;20036;-76
2023/10/15 03:44:58;;;;;;;4.20;1.42;;;;;;;;;;5054842;28;20045;-76
2023/10/15 03:47:24;;;;;;;2.53;1.20;;;;;;;;;;5054255;28;20033;-76
2023/10/15 03:49:52;;;;;;;2.72;1.42;;;;;;;;;;5053981;28;20037;-76
2023/10/15 03:52:20;;;;;;;4.10;1.60;;;;;;;;;;5054165;28;20052;-76
2023/10/15 03:54:49;;;;;;;4.13;1.88;;;;;;;;;;5053920;28;20170;-76
2023/10/15 03:57:18;;;;;;;2.28;1.45;;;;;;;;;;5053941;28;20049;-76
2023/10/15 03:59:53;;;;;;;4.55;1.38;;;;;;;;;;5053217;28;20036;-75
2023/10/15 04:05:14;;;;;;;4.32;1.40;;;;;;;;;;5035851;28;20043;-75
2023/10/15 04:07:48;;;;;;;4.97;1.40;;;;;;;;;;5053917;28;20039;-75
2023/10/15 04:10:23;;;;;;;2.83;1.30;;;;;;;;;;5053670;28;20045;-76
2023/10/15 04:12:49;;;;;;;1.95;1.48;;;;;;;;;;5053948;28;20112;-77
2023/10/15 04:15:16;;;;;;;1.58;1.40;;;;;;;;;;5019334;28;20530;-77
2023/10/15 04:17:44;;;;;;;8.30;1.55;;;;;;;;;;5036210;28;20056;-77
2023/10/15 04:20:10;;;;;;;2.75;1.33;;;;;;;;;;5035822;28;20391;-77
2023/10/15 04:22:44;;;;;;;1.95;1.20;;;;;;;;;;5036336;28;20029;-76
2023/10/15 04:25:23;;;;;;;2.50;1.40;;;;;;;;;;5054058;28;20049;-75
2023/10/15 04:27:49;;;;;;;3.00;1.52;;;;;;;;;;5053676;28;20083;-76
2023/10/15 04:30:14;;;;;;;2.95;1.00;;;;;;;;;;5053739;28;20407;-77
2023/10/15 04:35:11;;;;;;;2.45;1.40;;;;;;;;;;5053317;28;20044;-77
2023/10/15 04:40:11;;;;;;;3.15;1.55;;;;;;;;;;4972188;23;20415;-76
2023/10/15 04:42:40;;;;;;;3.13;1.30;;;;;;;;;;5032197;28;20046;-76
2023/10/15 04:45:20;;;;;;;1.77;1.33;;;;;;;;;;5032453;28;20073;-76
2023/10/15 04:47:51;;;;;;;3.40;1.45;;;;;;;;;;5033509;28;20051;-77
2023/10/15 04:50:16;;;;;;;5.20;1.23;;;;;;;;;;5020261;23;1141016;-72
2023/10/15 04:52:42;;;;;;;1.85;1.02;;;;;;;;;;5092898;28;20097;-73
2023/10/15 04:55:17;;;;;;;2.67;1.20;;;;;;;;;;5097294;28;20545;-72
2023/10/15 04:57:43;;;;;;;3.03;1.30;;;;;;;;;;5099658;28;20041;-73
2023/10/15 05:00:09;;;;;;;4.85;1.20;;;;;;;;;;5079404;28;20462;-72
2023/10/15 05:02:34;;;;;;;2.92;1.20;;;;;;;;;;5097437;28;20028;-71
2023/10/15 05:05:00;;;;;;;4.30;1.55;;;;;;;;;;5096135;28;20355;-72
2023/10/15 05:07:26;;;;;;;4.25;1.17;;;;;;;;;;5097018;28;20032;-71
2023/10/15 05:09:53;;;;;;;2.83;1.10;;;;;;;;;;5096900;28;20374;-71
2023/10/15 05:12:20;;;;;;;3.08;1.20;;;;;;;;;;5096910;28;20367;-71
2023/10/15 05:14:49;;;;;;;6.18;1.20;;;;;;;;;;5078672;28;20525;-71
2023/10/15 05:17:15;;;;;;;2.08;1.05;;;;;;;;;;5078170;28;20039;-70
2023/10/15 05:19:42;;;;;;;1.58;1.17;;;;;;;;;;5078539;28;20467;-70
2023/10/15 05:22:08;;;;;;;3.22;1.40;;;;;;;;;;5078572;28;20029;-72
2023/10/15 05:24:34;;;;;;;3.22;1.30;;;;;;;;;;5096712;28;20693;-72
2023/10/15 05:26:59;;;;;;;2.05;1.08;;;;;;;;;;5096726;28;20040;-73
2023/10/15 05:29:25;;;;;;;3.88;1.50;;;;;;;;;;5077921;28;20127;-77
2023/10/15 05:31:54;;;;;;;2.90;1.27;;;;;;;;;;5096837;28;20042;-77
2023/10/15 05:34:20;;;;;;;3.15;1.05;;;;;;;;;;5078296;28;20114;-77
2023/10/15 05:36:45;;;;;;;2.72;1.10;;;;;;;;;;5096379;28;20040;-77
2023/10/15 05:39:15;;;;;;;3.60;1.30;;;;;;;;;;5096919;28;20039;-77
2023/10/15 05:41:42;;;;;;;2.80;1.30;;;;;;;;;;5096622;28;20040;-76
2023/10/15 05:44:07;;;;;;;3.08;1.25;;;;;;;;;;5095884;28;20378;-77
2023/10/15 05:46:33;;;;;;;3.00;1.20;;;;;;;;;;5096488;28;20040;-76
2023/10/15 05:48:59;;;;;;;3.40;1.50;;;;;;;;;;5096191;28;20467;-76
2023/10/15 05:51:24;;;;;;;3.60;1.40;;;;;;;;;;5096078;28;20479;-76
2023/10/15 05:53:50;;;;;;;4.10;1.50;;;;;;;;;;5096124;28;20428;-76
2023/10/15 05:56:16;;;;;;;3.72;1.40;;;;;;;;;;5095735;28;20132;-77
2023/10/15 05:58:41;;;;;;;2.90;1.45;;;;;;;;;;5096111;28;20046;-77
2023/10/15 06:01:07;;;;;;;4.05;1.30;;;;;;;;;;5077887;28;20039;-79
2023/10/15 06:03:33;;;;;;;3.13;1.35;;;;;;;;;;5077385;28;20039;-77
2023/10/15 06:05:59;;;;;;;2.67;1.40;;;;;;;;;;5095360;28;20024;-74
2023/10/15 06:08:24;;;;;;;2.95;1.40;;;;;;;;;;5077297;28;20039;-75
2023/10/15 06:10:50;;;;;;;2.55;1.25;;;;;;;;;;5095580;28;20032;-76
2023/10/15 06:13:15;;;;;;;1.83;1.08;;;;;;;;;;5095209;28;20020;-78
2023/10/15 06:15:41;;;;;;;2.42;1.05;;;;;;;;;;5095844;28;20040;-77
2023/10/15 06:18:07;;;;;;;2.88;1.10;;;;;;;;;;5077768;28;20051;-77
2023/10/15 06:20:33;;;;;;;2.05;1.00;;;;;;;;;;5077555;28;20494;-78
2023/10/15 06:23:03;;;;;;;2.58;1.30;;;;;;;;;;5095355;28;20040;-77
2023/10/15 06:25:29;;;;;;;;;;;;;;;;;;5078379;28;20046;-72
2023/10/15 06:27:54;;;;;;;2.88;1.00;;;;;;;;;;5095765;28;19908;-77
2023/10/15 06:30:20;;;;;;;3.40;1.20;;;;;;;;;;5077552;28;20111;-77
2023/10/15 06:32:48;;;;;;;2.35;1.10;;;;;;;;;;5077484;28;20107;-76
2023/10/15 06:35:19;;;;;;;3.72;1.40;;;;;;;;;;5094926;28;20089;-75
2023/10/15 06:37:48;;;;;;;3.38;1.52;;;;;;;;;;5076857;28;20043;-75
2023/10/15 06:40:15;;;;;;;2.72;1.42;;;;;;;;;;5095273;28;20040;-75
2023/10/15 06:42:41;;;;;;;3.17;1.48;;;;;;;;;;5077405;28;20551;-77
2023/10/15 06:45:08;;;;;;;1.33;0.93;;;;;;;;;;5077973;28;20032;-77
2023/10/15 06:47:34;;;;;;;2.47;0.80;;;;;;;;;;5095479;28;20036;-77
2023/10/15 06:49:59;;;;;;;1.17;0.75;;;;;;;;;;5060854;28;20131;-77
2023/10/15 06:52:25;;;;;;;6.88;1.27;;;;;;;;;;5094167;28;20044;-76
2023/10/15 06:54:51;;;;;;;2.47;1.45;;;;;;;;;;5077414;28;20055;-77
2023/10/15 06:57:17;;;;;;;2.25;1.17;;;;;;;;;;5095493;28;20036;-76
2023/10/15 06:59:45;;;;;;;4.47;1.45;;;;;;;;;;5095246;28;20028;-77
2023/10/15 07:02:13;;;;;;;1.50;1.08;;;;;;;;;;5095370;28;20036;-77
2023/10/15 07:04:39;;;;;;;3.70;1.80;;;;;;;;;;5077029;28;20169;-74
2023/10/15 07:07:06;;;;;;;4.47;1.48;;;;;;;;;;5095141;28;20039;-74
2023/10/15 07:09:32;;;;;;;4.18;1.60;;;;;;;;;;5076901;28;20366;-75
2023/10/15 07:11:59;;;;;;;3.55;1.20;;;;;;;;;;5095005;28;20039;-75
2023/10/15 07:14:25;;;;;;;4.40;1.42;;;;;;;;;;5094601;28;20369;-76
2023/10/15 07:16:51;;;;;;;3.78;1.20;;;;;;;;;;5075733;28;20047;-76
2023/10/15 07:19:17;;;;;;;3.15;1.33;;;;;;;;;;5094809;28;20040;-75
2023/10/15 07:21:42;;;;;;;3.70;1.50;;;;;;;;;;5094511;28;20206;-75
2023/10/15 07:24:11;;;;;;;4.85;1.45;;;;;;;;;;5094612;28;20118;-76
2023/10/15 07:26:39;;;;;;;3.40;1.30;;;;;;;;;;5075667;28;20051;-76
2023/10/15 07:29:05;;;;;;;4.60;1.58;;;;;;;;;;5078931;28;20131;-76
2023/10/15 07:31:30;;;;;;;3.90;1.55;;;;;;;;;;5097460;28;20075;-76
2023/10/15 07:33:56;;;;;;;2.58;1.00;;;;;;;;;;5096935;28;20112;-76
2023/10/15 07:36:22;;;;;;;1.92;0.95;;;;;;;;;;5076762;28;20051;-76
2023/10/15 07:38:47;;;;;;;1.83;0.82;;;;;;;;;;5094696;28;20036;-76
2023/10/15 07:41:13;;;;;;;2.72;1.10;;;;;;;;;;5076018;28;20371;-74
2023/10/15 07:43:38;;;;;;;2.53;1.10;;;;;;;;;;5093699;28;20069;-73
2023/10/15 07:46:04;;;;;;;4.32;1.08;;;;;;;;;;5076016;28;20032;-72
2023/10/15 07:48:29;;;;;;;4.35;1.20;;;;;;;;;;5075832;28;20064;-71
2023/10/15 07:50:55;;;;;;;2.03;1.17;;;;;;;;;;5094005;28;20420;-74
2023/10/15 07:53:21;;;;;;;2.47;0.93;;;;;;;;;;5076607;28;20177;-77
2023/10/15 07:55:46;;;;;;;4.03;1.20;;;;;;;;;;5077471;28;20028;-73
2023/10/15 07:58:12;;;;;;;6.60;1.75;;;;;;;;;;5075918;28;20490;-73
2023/10/15 08:00:37;;;;;;;2.30;1.15;;;;;;;;;;5094041;28;20040;-75
2023/10/15 08:03:07;;;;;;;4.57;1.35;;;;;;;;;;5075975;28;20036;-72
2023/10/15 08:05:33;;;;;;;3.42;1.10;;;;;;;;;;5094219;28;20085;-75
2023/10/15 08:07:58;;;;;;;2.97;1.45;;;;;;;;;;5094186;28;20036;-71
2023/10/15 08:10:25;;;;;;;5.63;1.75;;;;;;;;;;5094018;28;20040;-71
2023/10/15 08:12:51;;;;;;;7.20;2.47;;;;;;;;;;5093908;28;20497;-73
2023/10/15 08:15:17;;;;;;;1.98;1.10;;;;;;;;;;5093233;28;20074;-71
2023/10/15 08:17:42;;;;;;;3.17;1.17;;;;;;;;;;5093604;28;20032;-70
2023/10/15 08:20:09;;;;;;;3.50;1.05;;;;;;;;;;5093593;28;20063;-70
2023/10/15 08:22:40;;;;;;;2.75;1.00;;;;;;;;;;5093030;28;20044;-70
2023/10/15 08:25:13;;;;;;;2.75;1.00;;;;;;;;;;5093129;28;20118;-70
2023/10/15 08:27:44;;;;;;;4.35;1.95;;;;;;;;;;5093169;28;20036;-69
2023/10/15 08:30:13;;;;;;;2.40;1.05;;;;;;;;;;5075204;28;20032;-72
2023/10/15 08:32:41;;;;;;;3.28;1.30;;;;;;;;;;5075392;28;20084;-72
2023/10/15 08:35:09;;;;;;;3.85;1.00;;;;;;;;;;5093294;28;20032;-72
2023/10/15 08:37:35;;;;;;;5.05;1.25;;;;;;;;;;5093319;28;20047;-72
2023/10/15 08:40:04;;;;;;;4.18;1.35;;;;;;;;;;5093428;28;20051;-72
2023/10/15 08:42:31;;;;;;;4.45;1.33;;;;;;;;;;5093239;28;20032;-72
2023/10/15 08:44:58;;;;;;;3.10;1.40;;;;;;;;;;5075170;28;20033;-72
2023/10/15 08:47:25;;;;;;;2.13;1.33;;;;;;;;;;5092924;28;20044;-72
2023/10/15 08:49:51;;;;;;;3.22;1.10;;;;;;;;;;5093268;28;20086;-72
2023/10/15 08:52:17;;;;;;;3.00;1.05;;;;;;;;;;5092638;28;20134;-71
2023/10/15 08:54:43;;;;;;;5.63;1.70;;;;;;;;;;5075285;28;20127;-72
2023/10/15 08:57:09;;;;;;;4.45;1.25;;;;;;;;;;5074823;28;20040;-72
2023/10/15 08:59:35;;;;;;;5.25;4.28;;;;;;;;;;5074887;28;20385;-71
2023/10/15 09:02:05;;;;;;;2.85;1.15;;;;;;;;;;5093123;28;20035;-72
2023/10/15 09:04:31;;;;;;;3.38;1.52;;;;;;;;;;5092704;28;20067;-72
2023/10/15 09:07:01;;;;;;;4.50;1.20;;;;;;;;;;5093258;28;20103;-72
2023/10/15 09:09:27;;;;;;;1.42;0.90;;;;;;;;;;5093080;28;20123;-72
2023/10/15 09:11:54;;;;;;;4.97;1.10;;;;;;;;;;5075056;28;20059;-71
2023/10/15 09:14:36;;;;;;;2.17;1.10;;;;;;;;;;5074781;28;20062;-72
2023/10/15 09:17:02;;;;;;;2.35;1.20;;;;;;;;;;5075016;28;20032;-72
2023/10/15 09:19:31;;;;;;;2.28;0.85;;;;;;;;;;5074907;28;20063;-72
2023/10/15 09:21:57;;;;;;;2.70;1.05;;;;;;;;;;5074664;28;20511;-72
2023/10/15 09:24:22;;;;;;;2.67;1.17;;;;;;;;;;5093079;28;20028;-72
2023/10/15 09:26:48;;;;;;;4.10;1.23;;;;;;;;;;5092960;28;20374;-74
2023/10/15 09:29:23;;;;;;;3.65;0.95;;;;;;;;;;5058347;28;20051;-72
2023/10/15 09:31:51;;;;;;;3.90;1.38;;;;;;;;;;5075021;28;20051;-72
2023/10/15 09:34:18;;;;;;;2.75;1.20;;;;;;;;;;5074904;28;20127;-73
2023/10/15 09:36:44;;;;;;;4.65;1.15;;;;;;;;;;5092967;28;20128;-73
2023/10/15 09:39:13;;;;;;;2.10;1.05;;;;;;;;;;5058585;28;20070;-72
2023/10/15 09:41:41;;;;;;;4.30;1.40;;;;;;;;;;5061867;28;20024;-72
2023/10/15 09:44:14;;;;;;;3.38;1.25;;;;;;;;;;5097029;28;20028;-72
2023/10/15 09:46:43;;;;;;;4.95;1.50;;;;;;;;;;5096814;28;20042;-73
2023/10/15 09:49:12;;;;;;;4.53;1.13;;;;;;;;;;5096849;28;20051;-73
2023/10/15 09:51:38;;;;;;;2.90;1.10;;;;;;;;;;5096475;28;20044;-73
2023/10/15 09:54:04;;;;;;;2.55;1.15;;;;;;;;;;5096857;28;20036;-73
2023/10/15 09:56:30;;;;;;;4.00;1.30;;;;;;;;;;5096377;28;20055;-73
2023/10/15 09:58:55;;;;;;;4.07;1.38;;;;;;;;;;5078302;28;20066;-72
2023/10/15 10:01:25;;;;;;;4.68;1.20;;;;;;;;;;5096614;28;20415;-73
2023/10/15 10:04:04;;;;;;;2.17;1.02;;;;;;;;;;5096528;28;20085;-73
2023/10/15 10:06:31;;;;;;;4.68;1.20;;;;;;;;;;5096137;28;20093;-74
2023/10/15 10:09:21;;;;;;;3.95;1.58;;;;;;;;;;5095930;28;20504;-73
2023/10/15 10:11:54;;;;;;;3.08;1.58;;;;;;;;;;5078275;28;20134;-73
2023/10/15 10:14:23;;;;;;;2.95;1.10;;;;;;;;;;5096084;28;20048;-73
2023/10/15 10:16:49;;;;;;;2.13;1.20;;;;;;;;;;5077809;28;20047;-71
2023/10/15 10:19:16;;;;;;;5.30;1.30;;;;;;;;;;5096249;28;20478;-71
2023/10/15 10:21:44;;;;;;;2.70;1.45;;;;;;;;;;5096016;28;20470;-71
2023/10/15 10:24:12;;;;;;;2.88;1.27;;;;;;;;;;5096338;28;20372;-73
2023/10/15 10:26:38;;;;;;;3.47;0.90;;;;;;;;;;5096194;28;20109;-74
2023/10/15 10:29:03;;;;;;;2.08;1.10;;;;;;;;;;5095722;28;20035;-73
2023/10/15 10:31:30;;;;;;;1.85;1.27;;;;;;;;;;5096138;28;20490;-73
2023/10/15 10:33:56;;;;;;;4.40;1.25;;;;;;;;;;5095656;28;20043;-74
2023/10/15 10:36:29;;;;;;;3.92;1.30;;;;;;;;;;5077604;28;20036;-73
2023/10/15 10:39:13;;;;;;;2.95;1.27;;;;;;;;;;5061302;28;20028;-73
2023/10/15 10:41:39;;;;;;;3.92;1.00;;;;;;;;;;5061195;28;20367;-73
2023/10/15 10:44:05;;;;;;;3.55;1.40;;;;;;;;;;5095993;28;20024;-73
2023/10/15 10:46:39;;;;;;;1.63;1.05;;;;;;;;;;5096020;28;20429;-73
2023/10/15 10:49:05;;;;;;;4.00;1.20;;;;;;;;;;5095349;28;20524;-73
2023/10/15 10:51:33;;;;;;;3.72;1.48;;;;;;;;;;5094390;28;20044;-73
2023/10/15 10:53:58;;;;;;;2.08;0.90;;;;;;;;;;5077900;28;20375;-73
2023/10/15 10:56:44;;;;;;;1.35;0.80;;;;;;;;;;5077678;28;20055;-73
2023/10/15 10:59:10;;;;;;;3.65;1.23;;;;;;;;;;5077447;28;20044;-73
2023/10/15 11:01:39;;;;;;;3.33;1.35;;;;;;;;;;5094957;28;20032;-72
2023/10/15 11:04:08;;;;;;;3.85;1.30;;;;;;;;;;5095277;28;20536;-72
2023/10/15 11:06:34;;;;;;;3.33;0.90;;;;;;;;;;5095409;28;20504;-74
2023/10/15 11:09:15;;;;;;;2.13;1.00;;;;;;;;;;5076887;28;20123;-72
2023/10/15 11:11:50;;;;;;;1.60;0.93;;;;;;;;;;5094962;28;20047;-72
2023/10/15 11:14:17;;;;;;;1.55;1.10;;;;;;;;;;5095108;28;20051;-71
2023/10/15 11:16:43;;;;;;;2.22;1.08;;;;;;;;;;5094585;28;20043;-74
2023/10/15 11:19:21;;;;;;;5.88;1.70;;;;;;;;;;5076381;28;20378;-73
2023/10/15 11:21:48;;;;;;;2.08;0.98;;;;;;;;;;5094560;28;20058;-71
2023/10/15 11:24:14;;;;;;;2.92;1.10;;;;;;;;;;5076313;28;20040;-73
2023/10/15 11:26:44;;;;;;;5.05;1.08;;;;;;;;;;5094072;28;20036;-72
2023/10/15 11:29:10;;;;;;;3.25;0.90;;;;;;;;;;5059462;28;20100;-72
2023/10/15 11:31:43;;;;;;;2.30;0.90;;;;;;;;;;5094464;28;20032;-71
2023/10/15 11:34:11;;;;;;;3.58;1.00;;;;;;;;;;5095009;28;20048;-73
2023/10/15 11:36:37;;;;;;;1.92;1.10;;;;;;;;;;5094827;28;20073;-73
2023/10/15 11:39:09;;;;;;;1.63;0.93;;;;;;;;;;5077003;28;20474;-71
2023/10/15 11:41:36;;;;;;;4.68;1.40;;;;;;;;;;5094564;28;20050;-73
2023/10/15 11:44:06;;;;;;;2.28;0.90;;;;;;;;;;5076738;28;20028;-73
2023/10/15 11:46:34;;;;;;;3.72;1.27;;;;;;;;;;5076210;28;20068;-71
2023/10/15 11:49:01;;;;;;;3.50;1.30;;;;;;;;;;5075982;28;20119;-75
2023/10/15 11:51:30;;;;;;;1.77;1.02;;;;;;;;;;5042637;28;20046;-77
2023/10/15 11:54:01;;;;;;;2.25;1.13;;;;;;;;;;4994337;28;20476;-76
2023/10/15 11:56:31;;;;;;;4.03;1.17;;;;;;;;;;5058780;28;20041;-76
2023/10/15 11:58:57;;;;;;;1.73;1.25;;;;;;;;;;4992129;28;20034;-72
2023/10/15 12:01:35;;;;;;;4.30;1.15;;;;;;;;;;4999078;23;20145;-76
2023/10/15 12:04:07;;;;;;;1.98;1.08;;;;;;;;;;5011811;28;20081;-77
2023/10/15 12:06:33;;;;;;;2.92;1.00;;;;;;;;;;4996624;28;20041;-77
2023/10/15 12:09:02;;;;;;;0.30;0.30;;;;;;;;;;5014038;28;20026;-74
2023/10/15 12:11:28;;;;;;;1.88;0.98;;;;;;;;;;4996317;28;20042;-74
2023/10/15 12:13:55;;;;;;;1.08;0.70;;;;;;;;;;4995222;28;20037;-75
2023/10/15 12:16:21;;;;;;;1.98;0.95;;;;;;;;;;5012122;28;20499;-74
2023/10/15 12:18:47;;;;;;;2.75;0.70;;;;;;;;;;5010605;28;20044;-74
2023/10/15 12:21:14;;;;;;;1.80;1.25;;;;;;;;;;5012048;28;20038;-75
2023/10/15 12:23:43;;;;;;;2.22;0.90;;;;;;;;;;4993461;28;20034;-74
2023/10/15 12:26:08;;;;;;;3.67;0.98;;;;;;;;;;5010894;28;20484;-75
2023/10/15 12:28:43;;;;;;;2.10;0.93;;;;;;;;;;4993100;28;20041;-75
2023/10/15 12:31:08;;;;;;;1.88;1.05;;;;;;;;;;5010980;28;20041;-75
2023/10/15 12:33:34;;;;;;;1.67;0.85;;;;;;;;;;5011278;28;20041;-74
2023/10/15 12:35:59;;;;;;;2.10;0.77;;;;;;;;;;5011193;28;20104;-75
2023/10/15 12:38:28;;;;;;;1.80;0.90;;;;;;;;;;5011247;28;20049;-75
2023/10/15 12:40:55;;;;;;;4.95;1.00;;;;;;;;;;4994865;28;20037;-75
2023/10/15 12:43:21;;;;;;;2.90;1.00;;;;;;;;;;5014059;28;20113;-75
2023/10/15 12:45:51;;;;;;;3.05;0.98;;;;;;;;;;5012553;28;20130;-75
2023/10/15 12:48:18;;;;;;;3.38;1.00;;;;;;;;;;5013794;28;20124;-75
2023/10/15 12:50:44;;;;;;;2.97;1.10;;;;;;;;;;5014030;28;20053;-75
2023/10/15 12:53:10;;;;;;;2.13;1.00;;;;;;;;;;4996173;28;20038;-73
2023/10/15 12:55:35;;;;;;;2.35;1.00;;;;;;;;;;5013637;28;20046;-75
2023/10/15 12:58:01;;;;;;;2.88;0.80;;;;;;;;;;5013430;28;20022;-76
2023/10/15 13:00:27;;;;;;;1.58;0.93;;;;;;;;;;5014175;28;20038;-74
2023/10/15 13:02:53;;;;;;;1.92;1.00;;;;;;;;;;4952082;28;20133;-75
2023/10/15 13:05:20;;;;;;;2.90;0.80;;;;;;;;;;4933544;29;20032;-76
2023/10/15 13:07:46;;;;;;;1.40;1.10;;;;;;;;;;4933500;29;20035;-76
2023/10/15 13:10:13;;;;;;;1.95;1.05;;;;;;;;;;4933470;29;20036;-74
2023/10/15 13:12:39;;;;;;;4.20;0.88;;;;;;;;;;4933311;28;20370;-75
2023/10/15 13:15:07;;;;;;;1.38;0.77;;;;;;;;;;4934589;29;20481;-69
2023/10/15 13:17:33;;;;;;;1.80;1.00;;;;;;;;;;4919567;28;20094;-67
2023/10/15 13:19:59;;;;;;;2.75;0.95;;;;;;;;;;4936246;29;20040;-74
2023/10/15 13:22:25;;;;;;;2.35;1.05;;;;;;;;;;4935738;28;20048;-73
2023/10/15 13:24:51;;;;;;;2.55;0.93;;;;;;;;;;4935381;29;20366;-73
2023/10/15 13:27:16;;;;;;;1.85;1.00;;;;;;;;;;4934107;28;20109;-74
2023/10/15 13:29:42;;;;;;;2.53;1.30;;;;;;;;;;4936273;28;20047;-73
2023/10/15 13:32:08;;;;;;;2.08;0.90;;;;;;;;;;4944480;28;20030;-74
2023/10/15 13:34:33;;;;;;;2.90;1.00;;;;;;;;;;4975467;28;20047;-73
2023/10/15 13:36:58;;;;;;;3.63;1.38;;;;;;;;;;4942994;28;20048;-74
2023/10/15 13:39:28;;;;;;;3.95;1.05;;;;;;;;;;4980462;28;20066;-73
2023/10/15 13:41:54;;;;;;;2.90;1.40;;;;;;;;;;4952071;28;20032;-73
2023/10/15 13:44:19;;;;;;;3.50;1.80;;;;;;;;;;4970216;28;20121;-73
2023/10/15 13:46:46;;;;;;;4.10;1.48;;;;;;;;;;4967765;28;20031;-74
2023/10/15 13:49:12;;;;;;;2.72;1.30;;;;;;;;;;4977195;28;20025;-75
2023/10/15 13:51:38;;;;;;;2.97;1.20;;;;;;;;;;4979417;28;20037;-74
2023/10/15 13:54:03;;;;;;;4.47;1.38;;;;;;;;;;4998236;28;20045;-73
2023/10/15 13:56:29;;;;;;;3.72;1.13;;;;;;;;;;4998226;28;20033;-74
2023/10/15 13:58:55;;;;;;;1.92;1.27;;;;;;;;;;5015563;28;20034;-74
2023/10/15 14:01:20;;;;;;;2.65;1.10;;;;;;;;;;4997622;28;20089;-74
2023/10/15 14:03:46;;;;;;;2.53;1.42;;;;;;;;;;4997658;28;20081;-75
2023/10/15 14:06:11;;;;;;;5.82;1.50;;;;;;;;;;5015456;28;20042;-75
2023/10/15 14:08:38;;;;;;;2.35;1.40;;;;;;;;;;5015495;28;20042;-75
2023/10/15 14:11:03;;;;;;;3.58;1.60;;;;;;;;;;5014904;28;20026;-75
2023/10/15 14:13:29;;;;;;;3.88;2.10;;;;;;;;;;5014525;28;20063;-75
2023/10/15 14:16:01;;;;;;;5.80;1.50;;;;;;;;;;5016345;28;20041;-77
2023/10/15 14:18:30;;;;;;;4.32;1.55;;;;;;;;;;5015141;28;20044;-77
2023/10/15 14:20:56;;;;;;;2.95;1.88;;;;;;;;;;4998553;28;20447;-76
2023/10/15 14:23:21;;;;;;;4.13;1.60;;;;;;;;;;5015949;28;20042;-76
2023/10/15 14:25:48;;;;;;;2.20;1.17;;;;;;;;;;4998040;28;20053;-77
2023/10/15 14:28:14;;;;;;;2.47;1.10;;;;;;;;;;5016449;28;20137;-77
2023/10/15 14:30:43;;;;;;;3.53;1.42;;;;;;;;;;5003685;28;20112;-77
2023/10/15 14:33:08;;;;;;;3.38;1.70;;;;;;;;;;4969271;28;20035;-76
2023/10/15 14:35:34;;;;;;;2.17;1.55;;;;;;;;;;4966887;28;20034;-77
2023/10/15 14:37:59;;;;;;;4.20;1.60;;;;;;;;;;5001345;28;20042;-78
2023/10/15 14:40:25;;;;;;;3.92;2.00;;;;;;;;;;4997982;28;20031;-79
2023/10/15 14:42:50;;;;;;;4.60;2.10;;;;;;;;;;4994988;28;20038;-78
2023/10/15 14:45:16;;;;;;;5.28;2.08;;;;;;;;;;4992590;28;20372;-78
2023/10/15 14:47:44;;;;;;;5.57;1.80;;;;;;;;;;4934584;29;20067;-78
2023/10/15 14:50:10;;;;;;;3.63;1.70;;;;;;;;;;4999925;28;20026;-78
2023/10/15 14:52:37;;;;;;;3.20;2.00;;;;;;;;;;5000195;28;20397;-75
2023/10/15 14:55:03;;;;;;;3.53;2.40;;;;;;;;;;4995998;28;20047;-78
2023/10/15 14:57:30;;;;;;;3.47;2.42;;;;;;;;;;4941990;28;20042;-78
2023/10/15 14:59:56;;;;;;;5.47;2.33;;;;;;;;;;5000228;28;20114;-77
2023/10/15 15:02:21;;;;;;;4.10;2.30;;;;;;;;;;4934580;29;20473;-78
2023/10/15 15:04:47;;;;;;;4.65;2.40;;;;;;;;;;4934513;29;20075;-78
2023/10/15 15:07:14;;;;;;;3.38;2.10;;;;;;;;;;4934699;29;20040;-78